Selfridge Air Natl Guard, Michigan
Current Conditions -  °F | °C
As of 2:58 AM on Thursday 27 Nov 2014 (Local Time) from KMTC Reporting Station
Overcast Overcast  
Wind Chill: 20°   Ceiling: 3800
Heat Index: 30°   Visibility: 10mi
Dew Point: 27°   Wind: 13mph
Humidity: 87%   Direction: 340°NNW
Pressure: 30.06"   Gusts: NA
Location:  42.5826°N, 82.8345°W
Report Text: KMTC 270758Z AUTO 34011KT 10SM BKN038 OVC045 M01/M03 A3006 RMK AO2 SLP190 T10111030
Loading
Personal Weather Stations






























Interactive Weather Map New forecast layout! Learn more

10-Day Weather Forecast

Advertisements
Track Severe Weather on mobile